Time;durP1;ratioP1;P1;durP2;ratioP2;P2;SDS_P1;SDS_P2;PMS_P1;PMS_P2;Temp;Humidity;BMP_temperature;BMP_pressure;BME280_temperature;BME280_humidity;BME280_pressure;Samples;Min_cycle;Max_cycle;Signal;HPM_P1;HPM_P2
2021/11/07 00:01:17;;;;;;;10.05;7.70;;;;;;;22.07;48.42;100585.88;7386709;19;20095;-50
2021/11/07 00:04:16;;;;;;;11.35;7.78;;;;;;;22.05;48.38;100575.31;7384153;19;20029;-52
2021/11/07 00:07:14;;;;;;;10.65;7.90;;;;;;;22.06;48.42;100570.81;7385220;19;20029;-50
2021/11/07 00:10:05;;;;;;;11.73;8.18;;;;;;;22.06;48.18;100577.00;7386111;19;20122;-55
2021/11/07 00:12:59;;;;;;;11.00;7.60;;;;;;;22.06;48.47;100571.69;7383598;19;20558;-51
2021/11/07 00:15:47;;;;;;;11.20;7.43;;;;;;;22.07;48.00;100572.53;7384995;19;20028;-50
2021/11/07 00:18:38;;;;;;;10.70;7.68;;;;;;;22.06;48.12;100569.00;7386518;19;20056;-52
2021/11/07 00:21:30;;;;;;;11.07;8.40;;;;;;;22.06;47.68;100566.34;7386121;19;20025;-49
2021/11/07 00:24:22;;;;;;;13.35;9.20;;;;;;;22.07;47.81;100568.06;7386366;19;20401;-55
2021/11/07 00:27:20;;;;;;;10.50;7.82;;;;;;;22.08;47.71;100558.22;7384917;19;20039;-55
2021/11/07 00:30:16;;;;;;;11.18;7.95;;;;;;;22.08;47.75;100551.06;7386963;19;20127;-54
2021/11/07 00:33:18;;;;;;;12.40;8.13;;;;;;;22.09;47.68;100549.25;7383711;19;20056;-54
2021/11/07 00:39:15;;;;;;;12.75;8.48;;;;;;;22.08;47.31;100553.75;7385614;19;20029;-52
2021/11/07 00:42:08;;;;;;;11.50;8.13;;;;;;;22.09;47.61;100544.75;7384360;19;20095;-51
2021/11/07 00:44:59;;;;;;;12.80;8.27;;;;;;;22.11;46.85;100547.28;7386155;19;20037;-49
2021/11/07 00:47:55;;;;;;;12.55;7.95;;;;;;;22.14;47.11;100552.38;7383355;19;20530;-52
2021/11/07 00:50:51;;;;;;;12.25;8.52;;;;;;;22.13;47.33;100543.53;7385025;19;20040;-49
2021/11/07 00:53:50;;;;;;;11.45;7.90;;;;;;;22.15;47.08;100544.25;7385464;19;20430;-53
2021/11/07 00:56:43;;;;;;;11.20;7.93;;;;;;;22.17;46.46;100530.75;7384307;19;20368;-56
2021/11/07 00:59:45;;;;;;;13.20;8.88;;;;;;;22.17;46.59;100520.94;7385186;19;20033;-52
2021/11/07 01:02:35;;;;;;;11.93;7.88;;;;;;;22.19;46.33;100513.63;7383611;19;20025;-53
2021/11/07 01:05:27;;;;;;;10.50;7.93;;;;;;;22.20;46.33;100509.16;7384727;19;20411;-53
2021/11/07 01:08:15;;;;;;;10.98;7.65;;;;;;;22.19;46.39;100502.97;7385424;19;20068;-53
2021/11/07 01:11:03;;;;;;;10.50;7.80;;;;;;;22.18;45.79;100501.25;7386749;19;20037;-50
2021/11/07 01:13:53;;;;;;;11.90;8.20;;;;;;;22.15;45.69;100488.16;7387923;19;20028;-51
2021/11/07 01:16:43;;;;;;;13.20;8.35;;;;;;;22.14;46.18;100494.50;7385539;19;20052;-53
2021/11/07 01:19:30;;;;;;;11.35;7.82;;;;;;;22.11;46.20;100489.41;7386785;19;20021;-55
2021/11/07 01:22:22;;;;;;;11.10;8.55;;;;;;;22.08;46.33;100484.31;7385369;19;20380;-51
2021/11/07 01:25:10;;;;;;;11.30;8.18;;;;;;;22.06;46.01;100480.06;7386729;19;20035;-51
2021/11/07 01:27:59;;;;;;;10.30;7.70;;;;;;;22.02;45.94;100476.75;7384441;19;20507;-51
2021/11/07 01:30:52;;;;;;;9.65;7.80;;;;;;;21.99;45.61;100469.00;7386300;19;20027;-52
2021/11/07 01:33:39;;;;;;;11.23;7.57;;;;;;;21.98;45.90;100467.31;7386340;19;20022;-51
2021/11/07 01:36:35;;;;;;;12.15;8.60;;;;;;;22.00;45.71;100467.19;7384679;19;20551;-49
2021/11/07 01:39:34;;;;;;;10.77;8.60;;;;;;;22.02;45.75;100459.91;7385722;19;20502;-50
2021/11/07 01:42:30;;;;;;;10.90;8.13;;;;;;;22.02;46.12;100458.06;7384063;19;20410;-49
2021/11/07 01:45:23;;;;;;;11.20;8.43;;;;;;;22.02;45.48;100450.06;7385037;19;20384;-52
2021/11/07 01:48:16;;;;;;;10.07;8.10;;;;;;;22.02;45.75;100444.72;7383577;19;20503;-51
2021/11/07 01:51:04;;;;;;;11.52;8.77;;;;;;;22.03;45.62;100443.75;7385159;19;20541;-49
2021/11/07 01:53:53;;;;;;;10.45;7.85;;;;;;;22.03;45.49;100437.56;7385320;19;20033;-48
2021/11/07 01:56:41;;;;;;;9.82;8.43;;;;;;;22.05;45.08;100427.63;7383750;19;20025;-49
2021/11/07 01:59:28;;;;;;;10.20;8.30;;;;;;;22.04;45.08;100429.47;7385050;19;20028;-48
2021/11/07 02:02:16;;;;;;;12.25;8.75;;;;;;;22.04;45.18;100418.78;7383759;19;20371;-52
2021/11/07 02:05:08;;;;;;;11.80;8.40;;;;;;;22.03;45.46;100409.06;7384587;19;20351;-49
2021/11/07 02:07:56;;;;;;;10.90;8.20;;;;;;;22.02;44.79;100410.03;7383208;19;20026;-54
2021/11/07 02:10:45;;;;;;;10.27;8.43;;;;;;;22.02;44.95;100398.50;7384610;19;20025;-52
2021/11/07 02:13:32;;;;;;;11.52;8.18;;;;;;;22.01;45.15;100386.13;7384895;19;20026;-51
2021/11/07 02:16:21;;;;;;;11.15;7.90;;;;;;;21.99;45.16;100388.94;7383207;19;20103;-49
2021/11/07 02:19:14;;;;;;;10.77;7.90;;;;;;;22.00;44.82;100387.09;7384332;19;20521;-53
2021/11/07 02:22:06;;;;;;;10.45;7.85;;;;;;;21.98;44.40;100383.72;7383770;19;20029;-54
2021/11/07 02:24:54;;;;;;;11.57;8.55;;;;;;;21.98;44.84;100376.56;7384148;19;20364;-53
2021/11/07 02:27:41;;;;;;;9.98;8.10;;;;;;;21.98;44.77;100371.22;7383110;19;20059;-50
2021/11/07 02:30:29;;;;;;;11.88;8.10;;;;;;;21.97;44.45;100366.88;7374530;19;20029;-47
2021/11/07 02:33:16;;;;;;;10.77;8.43;;;;;;;21.98;44.16;100367.72;7388690;19;20017;-48
2021/11/07 02:36:10;;;;;;;10.15;8.55;;;;;;;21.97;44.34;100368.69;7386342;19;20056;-48
2021/11/07 02:39:00;;;;;;;11.77;8.40;;;;;;;21.97;44.22;100368.69;7387727;19;20018;-50
2021/11/07 02:41:48;;;;;;;11.80;8.23;;;;;;;21.95;44.52;100366.16;7382852;19;20056;-52
2021/11/07 02:44:38;;;;;;;10.23;7.80;;;;;;;21.92;44.18;100364.59;7383565;19;20041;-51
2021/11/07 02:47:26;;;;;;;10.05;7.82;;;;;;;21.89;43.95;100369.34;7383690;19;20189;-52
2021/11/07 02:50:14;;;;;;;11.90;8.35;;;;;;;21.86;44.42;100364.22;7386886;19;20069;-48
2021/11/07 02:53:01;;;;;;;10.73;8.00;;;;;;;21.83;43.94;100353.81;7383697;19;20056;-50
2021/11/07 02:55:52;;;;;;;12.30;9.10;;;;;;;21.80;44.35;100336.25;7384799;19;20026;-50
2021/11/07 02:58:42;;;;;;;12.40;8.32;;;;;;;21.79;44.40;100334.56;7390932;19;20780;-50
2021/11/07 03:01:31;;;;;;;12.15;8.40;;;;;;;21.78;44.01;100332.00;7388579;19;20041;-47
2021/11/07 03:04:19;;;;;;;13.10;8.77;;;;;;;21.78;44.20;100332.00;7390626;19;20105;-49
2021/11/07 03:07:07;;;;;;;12.35;8.07;;;;;;;21.78;43.82;100330.19;7389189;19;20402;-51
2021/11/07 03:09:55;;;;;;;10.93;8.43;;;;;;;21.78;43.90;100332.00;7390430;19;20439;-54
2021/11/07 03:12:45;;;;;;;11.25;8.05;;;;;;;21.80;43.48;100320.22;7391014;19;20044;-49
2021/11/07 03:15:34;;;;;;;13.85;8.93;;;;;;;21.84;43.36;100312.81;7389061;19;20486;-49
2021/11/07 03:18:21;;;;;;;11.25;8.05;;;;;;;21.88;42.93;100307.09;7390441;19;20024;-48
2021/11/07 03:21:09;;;;;;;11.65;8.25;;;;;;;21.90;42.90;100288.28;7387744;19;20025;-48
2021/11/07 03:23:58;;;;;;;11.23;8.10;;;;;;;21.93;43.01;100282.69;7390464;19;20496;-49
2021/11/07 03:26:46;;;;;;;12.10;8.18;;;;;;;21.94;42.53;100284.38;7387290;19;20028;-51
2021/11/07 03:29:36;;;;;;;11.32;8.30;;;;;;;21.96;42.36;100285.09;7389545;19;20112;-53
2021/11/07 03:32:26;;;;;;;11.10;8.00;;;;;;;21.97;43.12;100281.44;7387045;19;20017;-52
2021/11/07 03:35:17;;;;;;;11.97;8.73;;;;;;;21.97;42.83;100273.44;7389491;19;20043;-52
2021/11/07 03:38:04;;;;;;;;;;;;;;;22.00;43.08;100267.84;7390850;19;20025;-51
2021/11/07 03:40:53;;;;;;;10.27;7.45;;;;;;;22.04;43.05;100274.63;7387987;19;20009;-50
2021/11/07 03:43:41;;;;;;;12.45;8.75;;;;;;;22.02;42.96;100270.38;7389912;19;20026;-51
2021/11/07 03:46:31;;;;;;;11.73;7.90;;;;;;;22.00;43.57;100267.84;7387706;19;20033;-50
2021/11/07 03:49:20;;;;;;;10.10;7.72;;;;;;;22.00;43.72;100257.16;7389705;19;20044;-50
2021/11/07 03:52:09;;;;;;;10.43;6.97;;;;;;;22.01;43.55;100253.50;7390390;19;20028;-51
2021/11/07 03:54:57;;;;;;;12.38;8.25;;;;;;;22.02;43.92;100249.00;7388937;19;20025;-53
2021/11/07 03:57:44;;;;;;;10.57;7.90;;;;;;;22.03;43.46;100256.03;7387368;19;20045;-50
2021/11/07 04:00:32;;;;;;;10.43;7.20;;;;;;;22.05;43.85;100243.44;7389340;19;20077;-50
2021/11/07 04:03:22;;;;;;;12.27;7.93;;;;;;;22.04;44.04;100237.25;7388661;19;20025;-52
2021/11/07 04:06:09;;;;;;;10.00;7.35;;;;;;;22.07;43.93;100241.47;7386003;19;20021;-51
2021/11/07 04:08:57;;;;;;;11.30;7.25;;;;;;;22.08;43.85;100244.06;7389817;19;20025;-50
2021/11/07 04:11:44;;;;;;;12.30;7.88;;;;;;;22.08;43.95;100233.38;7386519;19;20065;-54
2021/11/07 04:14:33;;;;;;;10.43;7.95;;;;;;;22.09;43.88;100224.38;7388610;19;20094;-49
2021/11/07 04:17:21;;;;;;;10.63;7.97;;;;;;;22.11;44.42;100225.09;7386755;19;20034;-53
2021/11/07 04:20:13;;;;;;;10.25;7.20;;;;;;;22.10;44.08;100211.88;7387806;19;20026;-54
2021/11/07 04:23:00;;;;;;;14.27;8.05;;;;;;;22.12;44.38;100225.94;7388083;19;20584;-52
2021/11/07 04:25:48;;;;;;;11.32;7.63;;;;;;;22.12;44.82;100213.44;7386937;19;20021;-52
2021/11/07 04:28:36;;;;;;;10.40;7.35;;;;;;;22.12;44.57;100200.09;7387933;19;20025;-56
2021/11/07 04:31:24;;;;;;;11.85;7.70;;;;;;;22.13;44.74;100198.25;7386274;19;20048;-56
2021/11/07 04:34:12;;;;;;;10.98;7.72;;;;;;;22.13;45.00;100191.09;7387774;19;20016;-54
2021/11/07 04:37:02;;;;;;;9.88;7.57;;;;;;;22.12;44.91;100189.41;7385064;19;20037;-55
2021/11/07 04:39:49;;;;;;;11.82;7.88;;;;;;;22.13;45.08;100184.91;7387439;19;20025;-55
2021/11/07 04:42:37;;;;;;;11.32;8.00;;;;;;;22.13;45.37;100183.09;7387578;19;20034;-53
2021/11/07 04:45:25;;;;;;;11.38;7.55;;;;;;;22.13;45.52;100180.41;7386865;19;20029;-53
2021/11/07 04:48:13;;;;;;;10.43;7.45;;;;;;;22.13;45.31;100172.41;7387486;19;20052;-53
2021/11/07 04:51:00;;;;;;;11.27;7.88;;;;;;;22.15;45.27;100174.94;7386272;19;20095;-53
2021/11/07 04:53:50;;;;;;;9.68;7.90;;;;;;;22.13;45.62;100164.41;7388511;19;20037;-56
2021/11/07 04:56:38;;;;;;;9.90;7.55;;;;;;;22.15;45.73;100159.75;7383676;19;20050;-54
2021/11/07 04:59:26;;;;;;;10.70;7.45;;;;;;;22.16;46.08;100161.44;7387030;19;20051;-51
2021/11/07 05:02:14;;;;;;;9.65;7.13;;;;;;;22.18;45.60;100154.16;7386734;19;20285;-52
2021/11/07 05:05:01;;;;;;;10.55;7.93;;;;;;;22.18;45.86;100147.97;7386397;19;20025;-52
2021/11/07 05:07:50;;;;;;;10.88;8.38;;;;;;;22.20;46.30;100138.81;7386446;19;20018;-55
2021/11/07 05:10:40;;;;;;;10.15;7.43;;;;;;;22.19;46.04;100133.63;7386084;19;20042;-51
2021/11/07 05:13:28;;;;;;;9.82;7.10;;;;;;;22.20;45.93;100122.81;7386705;19;20026;-52
2021/11/07 05:16:16;;;;;;;11.10;7.88;;;;;;;22.21;46.30;100116.50;7385257;19;20025;-50
2021/11/07 05:19:04;;;;;;;9.70;7.43;;;;;;;22.21;45.92;100105.81;7384380;19;20025;-50
2021/11/07 05:21:52;;;;;;;10.35;7.60;;;;;;;22.23;45.98;100102.16;7384376;19;20052;-51
2021/11/07 05:24:39;;;;;;;10.32;7.70;;;;;;;22.25;46.07;100103.69;7386066;19;20513;-51
2021/11/07 05:27:30;;;;;;;10.43;7.53;;;;;;;22.25;45.97;100105.53;7386438;19;20514;-54
2021/11/07 05:30:19;;;;;;;10.00;7.07;;;;;;;22.27;46.02;100114.25;7385230;19;20049;-53
2021/11/07 05:33:07;;;;;;;11.75;7.53;;;;;;;22.28;46.00;100115.94;7386176;19;20039;-51
2021/11/07 05:35:54;;;;;;;10.40;7.47;;;;;;;22.29;46.18;100118.50;7384487;19;20037;-49
2021/11/07 05:38:42;;;;;;;10.15;7.20;;;;;;;22.29;46.04;100110.47;7385448;19;20370;-53
2021/11/07 05:41:29;;;;;;;10.30;7.72;;;;;;;22.30;45.93;100103.31;7383840;19;20026;-54
2021/11/07 05:44:20;;;;;;;10.70;7.60;;;;;;;22.32;45.71;100101.34;7385805;19;20506;-53
2021/11/07 05:47:08;;;;;;;9.70;7.55;;;;;;;22.33;45.86;100097.69;7386439;19;20072;-54
2021/11/07 05:49:56;;;;;;;8.68;6.80;;;;;;;22.34;45.96;100094.88;7384859;19;20046;-53
2021/11/07 05:52:44;;;;;;;10.07;7.32;;;;;;;22.34;46.15;100088.69;7384841;19;20025;-50
2021/11/07 05:55:31;;;;;;;9.15;6.70;;;;;;;22.36;45.95;100089.41;7382959;19;20434;-53
2021/11/07 05:58:19;;;;;;;9.95;7.30;;;;;;;22.36;46.28;100082.22;7383519;19;20025;-51
2021/11/07 06:01:09;;;;;;;10.88;7.45;;;;;;;22.38;46.32;100079.44;7383697;19;20029;-52
2021/11/07 06:03:57;;;;;;;10.18;7.78;;;;;;;22.40;46.06;100080.13;7385030;19;20458;-50
2021/11/07 06:06:44;;;;;;;9.63;7.53;;;;;;;22.42;45.91;100084.34;7383361;19;20031;-50
2021/11/07 06:09:32;;;;;;;9.35;7.13;;;;;;;22.44;45.80;100078.84;7384756;19;20021;-54
2021/11/07 06:12:20;;;;;;;10.70;7.45;;;;;;;22.46;46.06;100066.22;7384974;19;20029;-52
2021/11/07 06:15:09;;;;;;;9.00;6.78;;;;;;;22.49;46.27;100071.28;7384784;19;20025;-50
2021/11/07 06:17:59;;;;;;;9.05;6.85;;;;;;;22.53;46.40;100062.00;7383727;19;20026;-51
2021/11/07 06:20:47;;;;;;;9.35;6.95;;;;;;;22.56;46.34;100061.72;7383712;19;20060;-51
2021/11/07 06:23:35;;;;;;;9.52;7.68;;;;;;;22.61;46.25;100059.47;7383641;19;20022;-50
2021/11/07 06:26:23;;;;;;;10.40;7.57;;;;;;;22.63;46.17;100060.19;7383109;19;20026;-50
2021/11/07 06:29:10;;;;;;;9.10;7.28;;;;;;;22.67;46.04;100060.72;7384272;19;20021;-50
2021/11/07 06:31:59;;;;;;;9.25;7.35;;;;;;;22.71;46.45;100057.66;7382237;19;20030;-52
2021/11/07 06:34:49;;;;;;;10.15;7.88;;;;;;;22.74;45.85;100054.72;7384788;19;20561;-52
2021/11/07 06:37:37;;;;;;;8.83;6.93;;;;;;;22.77;45.90;100048.22;7383006;19;20029;-53
2021/11/07 06:40:24;;;;;;;10.82;7.40;;;;;;;22.79;46.20;100052.44;7383490;19;20501;-50
2021/11/07 06:43:12;;;;;;;11.32;7.60;;;;;;;22.81;45.73;100046.94;7383867;19;20300;-52
2021/11/07 06:45:59;;;;;;;9.77;6.65;;;;;;;22.83;45.81;100034.31;7382632;19;20028;-49
2021/11/07 06:48:47;;;;;;;10.23;7.38;;;;;;;22.85;46.26;100020.81;7383059;19;20043;-53
2021/11/07 06:51:38;;;;;;;9.27;7.35;;;;;;;22.85;46.24;100013.63;7381682;19;20026;-51
2021/11/07 06:54:26;;;;;;;10.57;7.50;;;;;;;22.87;45.93;100022.34;7381915;19;20368;-51
2021/11/07 06:57:14;;;;;;;10.25;7.07;;;;;;;22.88;45.59;100020.53;7382950;19;20018;-50
2021/11/07 07:00:03;;;;;;;9.32;6.78;;;;;;;22.87;44.98;100010.81;7371868;19;20259;-51
2021/11/07 07:02:51;;;;;;;8.75;6.50;;;;;;;22.89;44.44;99998.16;7388270;19;20111;-50
2021/11/07 07:05:59;;;;;;;9.32;6.40;;;;;;;22.87;44.62;100003.66;7383280;19;20124;-52
2021/11/07 07:08:53;;;;;;;8.73;5.85;;;;;;;22.92;44.15;99996.06;7383639;19;20045;-55
2021/11/07 07:11:44;;;;;;;8.18;6.43;;;;;;;22.92;43.86;100001.41;7383927;19;20030;-48
2021/11/07 07:14:36;;;;;;;8.18;5.75;;;;;;;22.95;44.01;99997.59;7382536;19;20054;-48
2021/11/07 07:17:35;;;;;;;9.50;6.93;;;;;;;22.95;43.71;100003.78;7373763;19;20021;-59
2021/11/07 07:20:44;;;;;;;9.00;6.88;;;;;;;22.96;43.77;99999.28;7387600;19;20025;-55
2021/11/07 07:35:36;;;;;;;54.88;25.88;;;;;;;22.88;45.10;99956.38;7382203;19;20509;-63
2021/11/07 07:38:24;;;;;;;50.85;24.20;;;;;;;23.28;43.79;99956.09;7382644;19;20880;-62
2021/11/07 07:41:12;;;;;;;44.67;21.17;;;;;;;23.47;43.29;99944.47;7382821;19;20032;-63
2021/11/07 07:44:07;;;;;;;45.05;21.63;;;;;;;23.60;43.19;99950.38;7388772;19;20048;-66
2021/11/07 07:46:54;;;;;;;45.42;21.88;;;;;;;23.69;43.31;99944.09;7385973;19;20121;-70
2021/11/07 07:49:42;;;;;;;48.30;22.48;;;;;;;23.78;43.11;99945.88;7387096;19;20522;-64
2021/11/07 07:52:29;;;;;;;42.17;19.50;;;;;;;24.10;42.75;99941.84;7385524;19;20029;-68
2021/11/07 07:55:17;;;;;;;42.55;19.40;;;;;;;24.32;42.44;99944.09;7387423;19;20037;-43
2021/11/07 07:58:05;;;;;;;36.67;19.92;;;;;;;24.43;42.22;99941.19;7386098;19;20519;-43
2021/11/07 08:00:56;;;;;;;43.42;19.58;;;;;;;24.51;42.17;99935.03;7386361;19;20021;-43
2021/11/07 08:03:43;;;;;;;47.20;20.88;;;;;;;24.56;42.93;99933.56;7386938;19;20028;-47
2021/11/07 08:06:32;;;;;;;40.55;21.27;;;;;;;24.60;44.33;99910.84;7385879;19;20029;-40
2021/11/07 08:09:19;;;;;;;47.38;21.50;;;;;;;24.60;44.34;99900.13;7386672;19;20035;-44
2021/11/07 08:12:08;;;;;;;46.28;20.48;;;;;;;24.62;44.33;99897.28;7387013;19;20256;-47
2021/11/07 08:14:57;;;;;;;41.78;21.23;;;;;;;24.60;44.85;99893.91;7390657;19;20105;-43
2021/11/07 08:17:47;;;;;;;42.10;20.10;;;;;;;24.57;44.72;99892.41;7387581;19;20029;-41
2021/11/07 08:20:35;;;;;;;36.75;18.27;;;;;;;24.54;44.65;99881.13;7390866;19;20068;-39
2021/11/07 08:23:24;;;;;;;37.65;17.02;;;;;;;24.51;44.60;99871.56;7391008;19;20049;-42
2021/11/07 08:26:13;;;;;;;36.97;16.95;;;;;;;24.47;45.14;99869.38;7382493;19;20029;-42
2021/11/07 08:29:01;;;;;;;34.55;18.58;;;;;;;24.43;44.59;99866.16;7360626;19;20021;-43
2021/11/07 08:31:51;;;;;;;37.92;18.05;;;;;;;24.39;44.64;99856.75;7386181;19;20029;-41
2021/11/07 08:34:41;;;;;;;35.03;17.92;;;;;;;24.36;45.20;99877.66;7389084;19;20041;-43
2021/11/07 08:37:35;;;;;;;30.90;15.68;;;;;;;24.30;45.40;99868.41;7385443;19;20059;-42
2021/11/07 08:40:28;;;;;;;30.42;16.13;;;;;;;24.27;45.48;99857.97;7389075;19;20119;-41
2021/11/07 09:01:27;;;;;;;32.20;15.02;;;;;;;23.92;45.45;99835.59;7386880;19;20026;-41
2021/11/07 09:04:26;;;;;;;31.23;14.13;;;;;;;23.91;45.69;99835.75;7384061;19;20053;-42
2021/11/07 09:07:18;;;;;;;31.45;14.57;;;;;;;23.86;45.64;99827.34;7383399;19;20473;-42
2021/11/07 09:10:18;;;;;;;25.63;14.13;;;;;;;23.83;45.72;99817.78;7384035;19;20035;-40
2021/11/07 09:13:09;;;;;;;25.60;13.65;;;;;;;23.82;45.93;99816.09;7384255;19;20052;-42
2021/11/07 09:15:57;;;;;;;24.90;13.18;;;;;;;23.80;45.49;99823.44;7383628;19;20029;-41
2021/11/07 09:18:45;;;;;;;25.88;14.35;;;;;;;23.78;45.87;99816.56;7382549;19;20050;-42
2021/11/07 09:21:38;;;;;;;27.90;13.00;;;;;;;23.76;45.53;99808.72;7383250;19;20046;-43
2021/11/07 09:24:31;;;;;;;26.08;12.68;;;;;;;23.75;45.64;99800.84;7384014;19;20035;-42
2021/11/07 09:27:26;;;;;;;25.88;12.30;;;;;;;23.72;45.61;99789.41;7382603;19;20029;-42
2021/11/07 09:30:21;;;;;;;22.77;12.80;;;;;;;23.71;45.88;99785.06;7386705;19;20113;-42
2021/11/07 09:33:13;;;;;;;23.50;12.35;;;;;;;23.71;45.67;99777.03;7383708;19;20037;-42
2021/11/07 09:36:15;;;;;;;22.42;11.98;;;;;;;23.69;46.09;99772.81;7383449;19;20524;-50
2021/11/07 09:39:17;;;;;;;27.10;12.25;;;;;;;23.69;45.72;99768.31;7386657;19;20460;-41
2021/11/07 09:45:16;;;;;;;20.65;11.60;;;;;;;23.66;46.08;99757.09;7383616;19;20038;-41
2021/11/07 09:48:08;;;;;;;24.42;11.68;;;;;;;23.66;46.39;99757.09;7383128;19;20026;-42
2021/11/07 09:50:56;;;;;;;21.60;10.85;;;;;;;23.65;46.37;99760.75;7384599;19;20121;-60
2021/11/07 09:53:44;;;;;;;24.77;11.32;;;;;;;23.62;46.37;99753.88;7385693;19;20037;-55
2021/11/07 09:56:34;;;;;;;22.48;11.48;;;;;;;23.62;46.52;99751.19;7383809;19;20351;-52
2021/11/07 09:59:22;;;;;;;22.92;11.98;;;;;;;23.62;46.35;99745.84;7383342;19;20025;-53
2021/11/07 10:02:13;;;;;;;25.67;11.82;;;;;;;23.61;47.01;99740.66;7384165;19;20046;-53
2021/11/07 10:05:02;;;;;;;21.50;10.73;;;;;;;23.61;46.76;99735.31;7385013;19;20121;-53
2021/11/07 10:08:01;;;;;;;17.67;10.10;;;;;;;23.59;47.04;99711.38;7385207;19;20026;-49
2021/11/07 10:10:57;;;;;;;22.60;11.60;;;;;;;23.60;46.93;99715.75;7384210;19;20025;-53
2021/11/07 10:14:09;;;;;;;22.15;11.75;;;;;;;23.57;46.55;99704.50;7382197;19;20021;-52
2021/11/07 10:16:57;;;;;;;22.10;9.77;;;;;;;23.59;46.58;99697.16;7381435;19;20022;-50
2021/11/07 10:20:02;;;;;;;17.92;10.40;;;;;;;23.56;47.05;99679.59;7380707;19;20110;-56
2021/11/07 10:22:55;;;;;;;21.05;9.35;;;;;;;23.58;47.26;99679.44;7380031;19;20415;-54
2021/11/07 10:25:49;;;;;;;19.75;9.25;;;;;;;23.58;46.94;99682.09;7381742;19;20036;-53
2021/11/07 10:28:45;;;;;;;18.65;9.57;;;;;;;23.60;47.28;99677.44;7381705;19;20043;-54
2021/11/07 10:31:39;;;;;;;21.80;9.73;;;;;;;23.61;47.01;99684.47;7383419;19;20030;-55
2021/11/07 10:34:40;;;;;;;16.83;8.80;;;;;;;23.61;47.55;99665.75;7384089;19;20029;-54
2021/11/07 10:37:43;;;;;;;16.45;9.32;;;;;;;23.61;47.45;99668.41;7383814;19;20025;-55
2021/11/07 10:40:45;;;;;;;20.13;9.88;;;;;;;23.61;47.56;99647.00;7385826;19;20053;-60
2021/11/07 10:52:51;;;;;;;16.42;9.50;;;;;;;23.63;47.25;99645.00;7379545;19;20394;-61
2021/11/07 10:55:39;;;;;;;16.63;8.77;;;;;;;23.63;47.82;99634.31;7384393;19;20049;-61
2021/11/07 10:58:31;;;;;;;17.98;8.88;;;;;;;23.65;47.44;99624.28;7384550;19;20025;-60
2021/11/07 11:01:21;;;;;;;17.75;8.68;;;;;;;23.65;47.68;99626.97;7380083;19;20467;-62
2021/11/07 11:04:08;;;;;;;13.55;8.50;;;;;;;23.66;47.70;99615.25;7379216;19;20757;-62
2021/11/07 11:06:57;;;;;;;15.20;7.93;;;;;;;23.65;47.65;99617.09;7379586;19;20021;-60
2021/11/07 11:10:18;;;;;;;16.55;8.93;;;;;;;23.64;47.48;99609.22;7380361;19;20025;-60
2021/11/07 11:13:15;;;;;;;16.42;8.45;;;;;;;23.67;47.59;99614.25;7380499;19;20035;-61
2021/11/07 11:22:35;;;;;;;16.15;8.25;;;;;;;23.64;47.01;99591.34;7385635;19;20111;-56
2021/11/07 11:25:38;;;;;;;15.80;8.20;;;;;;;23.63;46.82;99588.81;7390322;19;20027;-56
2021/11/07 11:28:35;;;;;;;15.88;7.97;;;;;;;23.61;46.89;99597.00;7390668;19;20582;-57
2021/11/07 11:31:28;;;;;;;15.75;8.23;;;;;;;23.62;46.82;99589.81;7386814;19;20027;-58
2021/11/07 11:34:19;;;;;;;14.05;8.32;;;;;;;23.61;47.31;99593.50;7391640;19;20056;-56
2021/11/07 11:37:12;;;;;;;;;;;;;;;23.59;46.96;99595.50;7388951;19;20021;-49
2021/11/07 11:40:05;;;;;;;11.90;7.65;;;;;;;23.62;47.09;99579.13;7387360;19;19926;-52
2021/11/07 11:42:57;;;;;;;12.70;7.50;;;;;;;23.59;47.19;99574.09;7386983;19;20435;-52
2021/11/07 11:45:55;;;;;;;15.60;8.20;;;;;;;23.58;46.86;99567.06;7389037;19;20107;-49
2021/11/07 11:49:14;;;;;;;10.90;7.53;;;;;;;23.57;46.52;99557.34;7386202;19;20034;-51
2021/11/07 11:52:21;;;;;;;14.13;8.10;;;;;;;23.57;46.21;99560.03;7385538;19;20038;-49
2021/11/07 12:01:20;;;;;;;15.55;8.15;;;;;;;23.50;47.08;99556.25;7385868;19;20025;-54
2021/11/07 12:04:16;;;;;;;15.40;8.50;;;;;;;23.49;46.59;99546.56;7386765;19;20402;-53
2021/11/07 12:07:21;;;;;;;11.30;7.25;;;;;;;23.47;47.07;99537.84;7386920;19;20029;-53
2021/11/07 12:10:27;;;;;;;12.25;7.38;;;;;;;23.45;47.10;99534.50;7386753;19;20039;-53
2021/11/07 12:13:33;;;;;;;17.00;8.30;;;;;;;23.43;47.12;99540.84;7386067;19;20018;-53
2021/11/07 12:16:53;;;;;;;12.63;7.20;;;;;;;23.41;46.78;99545.53;7385031;19;20030;-55
2021/11/07 12:19:43;;;;;;;14.27;7.43;;;;;;;23.44;46.95;99547.03;7388425;19;20048;-50
2021/11/07 12:22:33;;;;;;;20.53;7.83;;;;;;;23.42;47.33;99544.53;7384255;19;20598;-53
2021/11/07 12:25:21;;;;;;;16.35;7.85;;;;;;;23.43;46.84;99551.56;7386036;19;20030;-53
2021/11/07 12:28:09;;;;;;;15.15;7.45;;;;;;;23.42;46.80;99547.19;7384962;19;20414;-50
2021/11/07 12:31:05;;;;;;;12.02;7.40;;;;;;;23.40;47.04;99543.84;7385715;19;20033;-53
2021/11/07 12:34:02;;;;;;;10.95;7.10;;;;;;;23.42;47.44;99541.00;7385462;19;20038;-49
2021/11/07 12:43:03;;;;;;;13.80;7.10;;;;;;;23.39;46.92;99531.47;7383295;19;20525;-48
2021/11/07 12:45:53;;;;;;;11.40;6.88;;;;;;;23.42;47.48;99520.44;7384552;19;20052;-49
2021/11/07 12:48:45;;;;;;;13.60;7.60;;;;;;;23.42;47.48;99530.31;7385213;19;20552;-52
2021/11/07 12:51:42;;;;;;;11.98;7.28;;;;;;;23.42;47.08;99531.16;7388275;19;20505;-51
2021/11/07 12:54:37;;;;;;;9.30;6.35;;;;;;;23.46;47.41;99528.16;7386950;19;20025;-52
2021/11/07 12:57:26;;;;;;;14.43;7.40;;;;;;;23.46;47.32;99523.63;7386863;19;20600;-52
2021/11/07 13:00:16;;;;;;;9.82;6.55;;;;;;;23.46;47.51;99518.28;7386172;19;20408;-51
2021/11/07 13:03:09;;;;;;;12.18;6.85;;;;;;;23.45;47.11;99510.44;7388856;19;20048;-54
2021/11/07 13:05:57;;;;;;;15.57;7.60;;;;;;;23.42;47.50;99519.63;7384641;19;20030;-55
2021/11/07 13:08:54;;;;;;;33.53;13.88;;;;;;;23.35;47.93;99522.09;7384250;19;20042;-56
2021/11/07 13:11:46;;;;;;;55.60;25.88;;;;;;;23.47;47.46;99522.63;7383016;19;20397;-58
2021/11/07 13:15:17;;;;;;;64.30;25.90;;;;;;;24.07;46.29;99513.72;7383855;19;20033;-59
2021/11/07 13:21:37;;;;;;;52.83;23.08;;;;;;;24.73;45.25;99519.06;7382939;19;20409;-58
2021/11/07 13:24:44;;;;;;;59.58;22.42;;;;;;;24.89;45.36;99510.19;7383609;19;20029;-54
2021/11/07 13:27:41;;;;;;;100.10;22.67;;;;;;;24.99;44.71;99516.25;7381930;19;20473;-66
2021/11/07 13:30:32;;;;;;;55.15;16.60;;;;;;;24.75;41.69;99519.72;7383591;19;20110;-50
2021/11/07 13:33:22;;;;;;;44.00;15.77;;;;;;;24.25;42.24;99517.13;7382902;19;20039;-56
2021/11/07 13:36:11;;;;;;;35.60;13.45;;;;;;;23.72;42.83;99518.28;7383153;19;20056;-58
2021/11/07 13:39:03;;;;;;;34.40;14.63;;;;;;;23.27;43.89;99519.34;7380955;19;20483;-54
2021/11/07 13:41:58;;;;;;;29.60;12.85;;;;;;;22.79;43.20;99523.31;7382238;19;20422;-54
2021/11/07 13:44:50;;;;;;;25.42;11.85;;;;;;;22.28;43.56;99512.47;7383455;19;20114;-53
2021/11/07 13:47:38;;;;;;;;;;;;;;;21.84;44.45;99518.47;7382334;19;20119;-55
2021/11/07 13:50:28;;;;;;;21.45;10.90;;;;;;;21.50;43.85;99517.38;7382802;19;19930;-53
2021/11/07 13:53:24;;;;;;;30.92;12.45;;;;;;;21.16;44.50;99520.50;7382504;19;20021;-53
2021/11/07 13:56:15;;;;;;;29.58;16.60;;;;;;;20.94;44.32;99527.00;7382360;19;20021;-57
2021/11/07 13:59:05;;;;;;;42.58;26.10;;;;;;;20.68;45.54;99523.25;7382083;19;20025;-57
2021/11/07 14:01:54;;;;;;;39.72;26.70;;;;;;;20.41;46.19;99518.63;7384724;19;20472;-57
2021/11/07 14:04:43;;;;;;;49.63;29.33;;;;;;;20.19;46.72;99524.13;7381718;19;20021;-56
2021/11/07 14:07:34;;;;;;;41.00;29.02;;;;;;;20.00;47.56;99530.28;7381184;19;20018;-58
2021/11/07 14:10:27;;;;;;;50.22;30.75;;;;;;;19.81;48.06;99524.91;7382380;19;20025;-61
2021/11/07 14:13:41;;;;;;;56.15;32.75;;;;;;;19.56;49.89;99529.69;7382114;19;20029;-52
2021/11/07 14:16:40;;;;;;;30.25;23.40;;;;;;;19.37;48.85;99530.44;7381668;19;20042;-54
2021/11/07 14:19:28;;;;;;;37.58;23.17;;;;;;;19.22;48.85;99525.59;7384048;19;20534;-50